Time;durP1;ratioP1;P1;durP2;ratioP2;P2;SDS_P1;SDS_P2;PMS_P1;PMS_P2;Temp;Humidity;BMP_temperature;BMP_pressure;BME280_temperature;BME280_humidity;BME280_pressure;Samples;Min_cycle;Max_cycle;Signal;HPM_P1;HPM_P2
2022/03/31 00:00:47;;;;;;;3.90;1.17;;;-3.20;93.80;;;;;;4972718;28;20438;-73
2022/03/31 00:03:15;;;;;;;1.15;0.90;;;-3.20;94.10;;;;;;4972842;28;20027;-73
2022/03/31 00:05:41;;;;;;;1.48;1.00;;;-3.20;94.10;;;;;;4972704;28;20439;-73
2022/03/31 00:08:13;;;;;;;2.58;1.02;;;-3.30;94.20;;;;;;4972526;28;20466;-73
2022/03/31 00:10:52;;;;;;;2.20;1.17;;;-3.30;94.10;;;;;;4972752;28;20147;-72
2022/03/31 00:13:20;;;;;;;2.90;1.15;;;-3.30;94.00;;;;;;4972669;28;20027;-72
2022/03/31 00:15:47;;;;;;;3.40;1.20;;;-3.30;93.80;;;;;;4974665;28;20090;-73
2022/03/31 00:18:14;;;;;;;3.92;1.40;;;-3.40;94.00;;;;;;4975995;28;20031;-74
2022/03/31 00:34:08;;;;;;;3.15;1.30;;;-3.60;97.70;;;;;;4956806;29;20033;-72
2022/03/31 00:36:34;;;;;;;4.03;1.30;;;-3.70;97.80;;;;;;4956423;28;20031;-72
2022/03/31 00:41:44;;;;;;;1.50;1.05;;;-3.70;97.90;;;;;;4956541;29;20038;-72
2022/03/31 00:44:10;;;;;;;1.95;1.17;;;-3.70;98.00;;;;;;4956509;28;20035;-72
2022/03/31 00:46:49;;;;;;;2.83;1.45;;;-3.80;98.30;;;;;;4956410;28;20061;-72
2022/03/31 00:49:16;;;;;;;5.85;1.10;;;-3.80;98.80;;;;;;4956410;28;20069;-72
2022/03/31 00:51:42;;;;;;;2.63;1.13;;;-3.90;99.20;;;;;;4956426;28;20050;-72
2022/03/31 00:54:09;;;;;;;5.70;1.30;;;-3.90;99.40;;;;;;4956252;28;20538;-72
2022/03/31 00:56:36;;;;;;;2.53;1.40;;;-4.00;99.50;;;;;;4956272;28;20023;-77
2022/03/31 00:59:06;;;;;;;3.08;1.25;;;-4.00;99.70;;;;;;4956144;28;20035;-71
2022/03/31 01:01:33;;;;;;;5.97;1.48;;;-4.00;99.90;;;;;;4956452;29;20383;-73
2022/03/31 01:04:00;;;;;;;1.70;1.02;;;-4.10;99.90;;;;;;4955935;28;20508;-73
2022/03/31 01:06:26;;;;;;;1.95;1.38;;;-4.20;99.90;;;;;;4956216;28;20023;-73
2022/03/31 01:08:52;;;;;;;3.08;1.50;;;-4.30;99.90;;;;;;4956111;28;20549;-73
2022/03/31 01:11:19;;;;;;;4.10;1.30;;;-4.30;99.90;;;;;;4955963;28;20031;-73
2022/03/31 01:13:45;;;;;;;3.42;1.00;;;-4.30;99.90;;;;;;4955895;28;20167;-71
2022/03/31 01:16:11;;;;;;;2.28;1.20;;;-4.40;99.90;;;;;;4955791;28;20034;-71
2022/03/31 01:18:37;;;;;;;2.60;1.10;;;-4.40;99.90;;;;;;4955781;28;20039;-71
2022/03/31 01:21:02;;;;;;;3.50;1.25;;;-4.40;99.90;;;;;;4955928;28;20030;-71
2022/03/31 01:23:28;;;;;;;2.95;1.20;;;-4.40;99.90;;;;;;4955706;28;20391;-71
2022/03/31 01:25:54;;;;;;;4.10;1.17;;;-4.40;99.90;;;;;;4955677;28;20039;-71
2022/03/31 01:28:20;;;;;;;4.20;1.10;;;-4.40;99.90;;;;;;4955010;28;20498;-71
2022/03/31 01:30:46;;;;;;;7.22;1.15;;;-4.40;99.90;;;;;;4955690;28;20031;-71
2022/03/31 01:33:14;;;;;;;2.70;1.20;;;-4.40;99.90;;;;;;4955371;28;20114;-71
2022/03/31 01:35:40;;;;;;;2.63;1.38;;;-4.40;99.90;;;;;;4955557;28;20024;-70
2022/03/31 01:38:06;;;;;;;2.70;1.10;;;-4.30;99.90;;;;;;4954921;28;20043;-70
2022/03/31 01:40:31;;;;;;;8.48;1.35;;;-4.30;99.90;;;;;;4955456;29;20058;-70
2022/03/31 01:42:57;;;;;;;2.45;1.15;;;-4.20;99.70;;;;;;4955215;28;20036;-71
2022/03/31 01:45:23;;;;;;;2.05;1.10;;;-4.20;99.30;;;;;;4955575;28;20027;-71
2022/03/31 01:47:49;;;;;;;2.40;1.13;;;-4.20;99.10;;;;;;4955507;29;20035;-70
2022/03/31 01:50:15;;;;;;;2.65;1.25;;;-4.20;98.80;;;;;;4955453;28;20539;-71
2022/03/31 01:52:42;;;;;;;2.40;1.10;;;-4.30;98.50;;;;;;4955155;29;20045;-71
2022/03/31 01:55:09;;;;;;;3.55;1.15;;;-4.30;98.50;;;;;;4955070;28;20027;-71
2022/03/31 01:57:34;;;;;;;3.13;1.10;;;-4.20;98.20;;;;;;4954971;28;20071;-71
2022/03/31 02:00:02;;;;;;;2.95;1.10;;;-4.30;98.40;;;;;;4954899;28;20019;-71
2022/03/31 02:02:30;;;;;;;1.63;1.30;;;-4.30;98.60;;;;;;4955058;28;20023;-71
2022/03/31 02:04:56;;;;;;;4.40;1.30;;;-4.30;98.60;;;;;;4955000;28;20019;-71
2022/03/31 02:07:22;;;;;;;1.55;1.13;;;-4.40;98.90;;;;;;4954850;28;20088;-71
2022/03/31 02:09:48;;;;;;;2.47;1.10;;;-4.40;98.70;;;;;;4954897;28;20027;-71
2022/03/31 02:12:14;;;;;;;2.95;1.13;;;-4.50;99.40;;;;;;4954717;28;20079;-71
2022/03/31 02:14:41;;;;;;;2.47;1.33;;;-4.50;99.40;;;;;;4955150;28;20094;-71
2022/03/31 02:17:11;;;;;;;2.13;1.10;;;-4.50;99.70;;;;;;4954600;28;20039;-71
2022/03/31 02:19:37;;;;;;;3.75;1.20;;;-4.60;99.90;;;;;;4954840;28;20034;-71
2022/03/31 02:22:04;;;;;;;3.53;1.20;;;-4.50;99.90;;;;;;4954893;28;20035;-71
2022/03/31 02:56:00;;;;;;;4.50;1.42;;;-4.50;98.20;;;;;;4953541;29;20054;-70
2022/03/31 02:58:26;;;;;;;2.80;1.27;;;-4.60;98.90;;;;;;4954256;28;20387;-70
2022/03/31 03:00:52;;;;;;;4.43;1.48;;;-4.70;99.90;;;;;;4954064;28;20019;-70
2022/03/31 03:39:34;;;;;;;1.58;1.00;;;-5.10;99.20;;;;;;4950800;28;20047;-65
2022/03/31 03:42:01;;;;;;;4.57;1.23;;;-5.10;99.30;;;;;;4953770;28;20031;-65
2022/03/31 03:44:26;;;;;;;5.10;1.30;;;-5.20;99.50;;;;;;4953698;28;20232;-65
2022/03/31 03:46:53;;;;;;;2.35;1.20;;;-5.20;99.70;;;;;;4953705;28;20015;-65
2022/03/31 03:49:18;;;;;;;3.13;1.42;;;-5.30;99.90;;;;;;4953591;28;20023;-65
2022/03/31 03:51:45;;;;;;;5.88;1.40;;;-5.30;99.90;;;;;;4957316;28;20019;-65
2022/03/31 03:54:11;;;;;;;2.60;1.20;;;-5.30;99.90;;;;;;4957460;28;20039;-66
2022/03/31 03:56:37;;;;;;;2.78;1.45;;;-5.20;99.90;;;;;;4957399;28;20066;-66
2022/03/31 03:59:04;;;;;;;1.77;1.30;;;-5.20;99.90;;;;;;4957396;28;20426;-66
2022/03/31 04:01:30;;;;;;;2.60;1.30;;;-5.10;99.90;;;;;;4957469;28;20066;-66
2022/03/31 04:03:57;;;;;;;5.78;1.33;;;-5.20;99.90;;;;;;4957257;28;20020;-66
2022/03/31 04:06:23;;;;;;;2.88;1.52;;;-5.20;99.90;;;;;;4957289;28;20032;-65
2022/03/31 04:08:49;;;;;;;4.38;1.45;;;-5.10;99.90;;;;;;4957041;28;20051;-65
2022/03/31 04:11:14;;;;;;;2.80;1.25;;;-5.10;99.90;;;;;;4957287;29;20180;-65
2022/03/31 04:13:40;;;;;;;5.10;1.88;;;-5.10;99.90;;;;;;4956894;28;20028;-66
2022/03/31 04:16:06;;;;;;;7.20;2.70;;;-5.10;99.90;;;;;;4955851;29;20023;-65
2022/03/31 04:18:32;;;;;;;7.97;1.63;;;-5.10;99.90;;;;;;4956827;29;20045;-65
2022/03/31 04:21:01;;;;;;;1.80;1.30;;;-5.10;99.90;;;;;;4956710;28;20023;-65
2022/03/31 04:23:27;;;;;;;4.88;1.40;;;-5.10;99.90;;;;;;4956773;28;20636;-65
2022/03/31 04:25:53;;;;;;;2.67;1.13;;;-5.10;99.90;;;;;;4956728;28;20024;-65
2022/03/31 04:28:18;;;;;;;8.20;1.25;;;-5.10;99.90;;;;;;4956590;29;20102;-66
2022/03/31 04:30:44;;;;;;;5.63;1.55;;;-5.00;99.90;;;;;;4956546;28;20019;-66
2022/03/31 04:33:10;;;;;;;6.05;1.42;;;-5.00;99.90;;;;;;4956378;29;20126;-63
2022/03/31 04:35:36;;;;;;;3.45;1.20;;;-5.10;99.90;;;;;;4956843;29;20110;-63
2022/03/31 04:38:03;;;;;;;2.50;1.15;;;-5.10;99.90;;;;;;4956024;28;20079;-64
2022/03/31 04:40:29;;;;;;;2.40;1.20;;;-5.00;99.90;;;;;;4956457;28;20049;-63
2022/03/31 04:42:54;;;;;;;3.10;1.52;;;-4.70;99.90;;;;;;4959476;28;20034;-64
2022/03/31 04:45:20;;;;;;;3.70;1.35;;;-4.40;99.90;;;;;;4975315;28;20045;-64
2022/03/31 04:47:46;;;;;;;3.25;1.20;;;-4.60;99.90;;;;;;4975691;28;20058;-64
2022/03/31 04:50:13;;;;;;;7.25;1.55;;;-4.70;99.90;;;;;;4975592;28;20050;-64
2022/03/31 04:52:40;;;;;;;3.28;1.30;;;-4.80;99.90;;;;;;4975624;28;20031;-64
2022/03/31 04:55:06;;;;;;;7.78;3.45;;;-5.00;99.90;;;;;;4966450;28;20023;-65
2022/03/31 04:57:32;;;;;;;6.97;1.70;;;-5.00;99.90;;;;;;4956198;28;20043;-65
2022/03/31 04:59:58;;;;;;;4.20;1.42;;;-5.10;99.90;;;;;;4955903;28;20558;-65
2022/03/31 05:02:23;;;;;;;6.68;1.48;;;-5.10;99.90;;;;;;4954839;28;20032;-67
2022/03/31 05:04:49;;;;;;;3.97;1.42;;;-5.20;99.90;;;;;;4954753;29;20038;-65
2022/03/31 05:07:15;;;;;;;3.45;1.33;;;-5.20;99.90;;;;;;4955780;28;20023;-65
2022/03/31 05:09:41;;;;;;;3.72;1.35;;;-5.20;99.90;;;;;;4955630;28;20067;-65
2022/03/31 05:12:08;;;;;;;4.75;1.48;;;-5.10;99.90;;;;;;4954653;28;20028;-65
2022/03/31 05:14:34;;;;;;;7.53;1.85;;;-5.20;99.90;;;;;;4956163;28;20034;-65
2022/03/31 05:17:01;;;;;;;3.75;1.30;;;-5.20;99.90;;;;;;4955722;28;20059;-64
2022/03/31 05:19:27;;;;;;;2.17;1.42;;;-5.20;99.90;;;;;;4955861;28;20032;-64
2022/03/31 05:21:53;;;;;;;6.22;1.77;;;-5.30;99.90;;;;;;4955755;28;20031;-65
2022/03/31 05:24:18;;;;;;;27.38;6.47;;;-5.30;99.90;;;;;;4956177;28;20028;-64
2022/03/31 05:26:45;;;;;;;16.40;4.68;;;-5.20;99.90;;;;;;4955713;28;20055;-62
2022/03/31 05:29:13;;;;;;;10.52;3.15;;;-5.00;99.90;;;;;;4955729;28;20028;-63
2022/03/31 05:31:39;;;;;;;5.90;2.25;;;-4.60;99.90;;;;;;4955673;28;20016;-63
2022/03/31 05:34:05;;;;;;;4.18;1.60;;;-4.40;99.90;;;;;;4954337;28;20031;-63
2022/03/31 05:36:31;;;;;;;3.85;1.58;;;-4.30;99.90;;;;;;4954307;29;20485;-63
2022/03/31 05:38:57;;;;;;;2.55;1.40;;;-4.00;99.90;;;;;;4955107;28;20101;-63
2022/03/31 05:41:24;;;;;;;6.20;1.40;;;-3.70;99.90;;;;;;4955747;28;20457;-63
2022/03/31 05:43:49;;;;;;;7.65;1.20;;;-3.20;99.90;;;;;;4955247;28;20027;-63
2022/03/31 05:46:15;;;;;;;7.07;1.20;;;-2.80;99.90;;;;;;4955409;28;20082;-64
2022/03/31 05:48:41;;;;;;;1.65;0.98;;;-2.60;99.90;;;;;;4955157;28;20034;-65
2022/03/31 05:51:07;;;;;;;3.45;1.13;;;-2.30;99.90;;;;;;4955340;28;20023;-65
2022/03/31 05:53:33;;;;;;;4.05;1.20;;;-2.30;98.90;;;;;;4955167;28;20668;-65
2022/03/31 05:55:59;;;;;;;8.40;1.50;;;-2.50;98.40;;;;;;4955116;28;20037;-65
2022/03/31 05:58:25;;;;;;;4.78;1.30;;;-2.60;99.00;;;;;;4955092;28;20043;-65
2022/03/31 06:00:53;;;;;;;5.95;1.30;;;-2.60;99.60;;;;;;4955140;28;20026;-65
2022/03/31 06:03:22;;;;;;;2.38;1.30;;;-2.70;99.90;;;;;;4955298;28;20164;-65
2022/03/31 06:05:49;;;;;;;1.48;0.90;;;-2.70;99.90;;;;;;4955240;28;20126;-65
2022/03/31 06:08:16;;;;;;;2.40;1.10;;;-2.70;99.90;;;;;;4954868;28;20582;-66
2022/03/31 06:10:42;;;;;;;4.32;1.30;;;-2.20;99.90;;;;;;4954800;28;20490;-66
2022/03/31 06:13:09;;;;;;;7.25;1.20;;;-1.60;99.90;;;;;;4953369;28;20030;-64
2022/03/31 06:15:35;;;;;;;3.00;1.40;;;-1.80;99.90;;;;;;4954726;28;20034;-64
2022/03/31 06:18:01;;;;;;;2.60;1.20;;;-2.20;99.90;;;;;;4954538;28;20036;-63
2022/03/31 06:20:34;;;;;;;4.95;1.10;;;-2.40;99.90;;;;;;4954927;28;20023;-65
2022/03/31 06:23:00;;;;;;;4.63;1.10;;;-2.50;99.90;;;;;;4954890;28;20031;-63
2022/03/31 06:25:26;;;;;;;6.13;1.60;;;-2.50;99.90;;;;;;4954509;28;20102;-66
2022/03/31 06:27:52;;;;;;;5.80;1.27;;;-2.50;99.90;;;;;;4954481;28;20110;-63
2022/03/31 06:30:18;;;;;;;2.90;1.10;;;-2.50;99.90;;;;;;4954426;28;20058;-64
2022/03/31 06:32:44;;;;;;;6.82;1.30;;;-2.50;99.90;;;;;;4954325;28;20035;-63
2022/03/31 06:35:14;;;;;;;2.97;1.05;;;-2.50;99.90;;;;;;4954309;28;20023;-63
2022/03/31 06:37:41;;;;;;;4.80;1.20;;;-2.40;99.90;;;;;;4954064;28;20387;-63
2022/03/31 06:40:07;;;;;;;2.95;1.20;;;-2.40;99.90;;;;;;4954280;28;20744;-63
2022/03/31 06:42:33;;;;;;;3.78;0.95;;;-2.30;99.90;;;;;;4954687;28;20054;-65
2022/03/31 06:44:59;;;;;;;1.63;0.95;;;-2.30;99.90;;;;;;4969207;28;20482;-63
2022/03/31 06:47:24;;;;;;;5.82;1.40;;;-2.20;99.90;;;;;;4964887;28;20039;-62
2022/03/31 06:49:50;;;;;;;7.03;1.30;;;-2.20;99.90;;;;;;4968731;28;20089;-62
2022/03/31 06:52:16;;;;;;;2.00;0.98;;;-2.10;99.90;;;;;;4972717;28;20057;-64
2022/03/31 06:54:41;;;;;;;3.83;1.02;;;-2.10;99.90;;;;;;4960993;28;20419;-64
2022/03/31 06:57:07;;;;;;;2.30;1.00;;;-1.90;99.90;;;;;;4969029;28;20045;-66
2022/03/31 06:59:33;;;;;;;2.75;1.10;;;-1.50;99.90;;;;;;4969444;28;20027;-66
2022/03/31 07:01:59;;;;;;;2.25;1.20;;;-1.30;98.90;;;;;;4960066;28;20095;-66
2022/03/31 07:04:25;;;;;;;3.53;1.10;;;-1.00;98.50;;;;;;4962208;28;20570;-65
2022/03/31 07:06:51;;;;;;;3.47;1.27;;;-0.80;96.80;;;;;;4966981;28;20061;-65
2022/03/31 07:09:17;;;;;;;7.65;1.00;;;-0.70;96.50;;;;;;4956786;28;20038;-63
2022/03/31 07:11:42;;;;;;;3.03;1.20;;;-0.70;94.90;;;;;;4967973;28;20498;-66
2022/03/31 07:14:08;;;;;;;6.70;1.35;;;-0.90;95.20;;;;;;4961315;28;20030;-66
2022/03/31 07:16:34;;;;;;;4.22;1.20;;;-0.90;94.90;;;;;;4961709;28;20035;-68
2022/03/31 07:19:01;;;;;;;2.30;1.10;;;-1.00;95.30;;;;;;4968250;28;20509;-66
2022/03/31 07:21:27;;;;;;;4.80;1.27;;;-0.90;95.30;;;;;;4956785;28;20111;-68
2022/03/31 07:23:53;;;;;;;2.92;1.10;;;-0.90;95.10;;;;;;4966561;28;20044;-71
2022/03/31 07:26:20;;;;;;;4.45;1.30;;;-1.00;95.30;;;;;;4961910;28;20019;-71
2022/03/31 07:28:46;;;;;;;3.45;1.20;;;-1.00;95.20;;;;;;4972600;28;20030;-67
2022/03/31 07:31:12;;;;;;;7.18;1.10;;;-1.00;96.00;;;;;;4956689;28;20031;-67
2022/03/31 07:33:38;;;;;;;2.35;1.17;;;-1.10;95.50;;;;;;4972548;28;20030;-70
2022/03/31 07:36:06;;;;;;;1.80;1.08;;;-1.10;96.30;;;;;;4963948;28;20031;-70
2022/03/31 07:38:32;;;;;;;2.50;1.30;;;-1.10;95.90;;;;;;4962769;28;20138;-67
2022/03/31 07:40:58;;;;;;;5.25;1.30;;;-1.10;96.40;;;;;;4982368;28;20154;-67
2022/03/31 07:43:24;;;;;;;3.03;1.30;;;-0.80;99.90;;;;;;4966283;28;20613;-65
2022/03/31 07:45:51;;;;;;;3.90;1.10;;;-0.80;98.00;;;;;;4984661;28;20033;-67
2022/03/31 07:48:18;;;;;;;1.27;1.02;;;-1.00;97.50;;;;;;4962006;28;20110;-65
2022/03/31 07:50:45;;;;;;;2.05;0.95;;;-1.10;97.30;;;;;;4963536;28;20023;-65
2022/03/31 07:53:11;;;;;;;3.85;1.00;;;-1.00;97.30;;;;;;4970232;28;20113;-65
2022/03/31 07:55:38;;;;;;;7.80;1.20;;;-1.00;97.20;;;;;;4987970;28;20035;-65
2022/03/31 07:58:04;;;;;;;4.78;1.20;;;-1.00;97.00;;;;;;4992166;28;20064;-64
2022/03/31 08:00:30;;;;;;;4.43;1.30;;;-0.90;97.40;;;;;;4992348;28;20374;-65
2022/03/31 08:02:59;;;;;;;5.35;1.10;;;-0.80;96.50;;;;;;4992166;28;20035;-64
2022/03/31 08:05:27;;;;;;;2.83;1.20;;;-0.90;95.90;;;;;;4992114;28;20130;-64
2022/03/31 08:07:53;;;;;;;2.92;1.13;;;-0.80;96.50;;;;;;4970225;28;20029;-64
2022/03/31 08:10:20;;;;;;;2.13;1.10;;;-0.80;95.70;;;;;;4972435;28;20389;-65
2022/03/31 08:12:46;;;;;;;1.25;0.90;;;-0.80;95.90;;;;;;4972707;28;20118;-65
2022/03/31 08:15:15;;;;;;;3.38;1.05;;;-0.70;95.70;;;;;;4972726;28;20031;-65
2022/03/31 08:17:49;;;;;;;2.85;0.85;;;-0.70;95.30;;;;;;4972645;28;20051;-65
2022/03/31 08:20:15;;;;;;;2.28;1.00;;;-0.70;95.00;;;;;;4971281;28;20372;-65
2022/03/31 08:22:41;;;;;;;4.80;1.48;;;-0.70;94.80;;;;;;4972451;28;20031;-65
2022/03/31 08:25:09;;;;;;;3.05;1.17;;;-0.40;99.90;;;;;;4972154;28;20031;-66
2022/03/31 08:27:35;;;;;;;3.80;1.00;;;-0.30;97.90;;;;;;4972417;28;20394;-65
2022/03/31 08:30:05;;;;;;;2.20;1.15;;;-0.20;96.90;;;;;;4970999;28;20025;-65
2022/03/31 08:32:36;;;;;;;3.95;1.27;;;-0.20;95.70;;;;;;4972700;28;20038;-65
2022/03/31 08:35:03;;;;;;;4.43;1.98;;;-0.20;95.20;;;;;;4972102;28;20027;-65
2022/03/31 08:37:29;;;;;;;2.95;1.20;;;-0.10;95.20;;;;;;4975166;28;20411;-65
2022/03/31 08:39:55;;;;;;;3.70;1.65;;;-0.10;95.20;;;;;;4975977;28;20030;-65
2022/03/31 08:42:21;;;;;;;4.32;1.40;;;-0.10;94.20;;;;;;4975532;28;20439;-65
2022/03/31 08:44:50;;;;;;;7.03;1.63;;;0.00;95.00;;;;;;4975605;28;20527;-65
2022/03/31 08:47:17;;;;;;;5.28;1.25;;;0.00;94.90;;;;;;4975442;28;20038;-65
2022/03/31 08:49:46;;;;;;;2.92;1.00;;;0.00;94.70;;;;;;4975658;28;20034;-65
2022/03/31 08:52:12;;;;;;;6.45;1.30;;;0.00;95.10;;;;;;4975519;28;20034;-65
2022/03/31 08:54:39;;;;;;;4.20;1.30;;;0.10;94.00;;;;;;4975457;28;20030;-65
2022/03/31 08:57:05;;;;;;;3.90;1.10;;;0.20;94.30;;;;;;4975396;28;20053;-65
2022/03/31 08:59:31;;;;;;;3.22;1.25;;;0.20;93.80;;;;;;4975257;28;20490;-65
2022/03/31 09:01:58;;;;;;;4.00;1.50;;;0.20;93.10;;;;;;4974017;28;20402;-65
2022/03/31 09:04:24;;;;;;;6.05;1.25;;;0.20;93.20;;;;;;4975360;28;20026;-65
2022/03/31 09:07:04;;;;;;;3.72;1.23;;;0.30;92.90;;;;;;4975003;28;20070;-66
2022/03/31 09:09:30;;;;;;;2.55;1.23;;;1.40;99.90;;;;;;4975413;28;20049;-64
2022/03/31 09:11:56;;;;;;;2.10;1.08;;;1.40;99.90;;;;;;4975032;28;20470;-64
2022/03/31 09:14:32;;;;;;;17.40;4.60;;;1.30;99.90;;;;;;4975124;28;20086;-64
2022/03/31 09:17:12;;;;;;;1.20;1.02;;;1.40;97.10;;;;;;4975075;28;20129;-66
2022/03/31 09:19:38;;;;;;;2.83;1.08;;;1.30;92.50;;;;;;4973704;28;20031;-65
2022/03/31 09:22:04;;;;;;;7.15;1.30;;;1.10;90.70;;;;;;4974820;28;20042;-65
2022/03/31 09:24:31;;;;;;;4.10;1.00;;;0.90;90.10;;;;;;4974929;28;20030;-65
2022/03/31 09:26:58;;;;;;;5.10;1.10;;;1.00;97.00;;;;;;4974791;28;20023;-66
2022/03/31 09:29:26;;;;;;;2.83;1.05;;;1.10;90.80;;;;;;4974938;28;20085;-69
2022/03/31 09:31:53;;;;;;;2.67;1.20;;;1.10;90.10;;;;;;4974543;28;20018;-69
2022/03/31 09:34:20;;;;;;;3.05;0.88;;;1.00;89.70;;;;;;4955334;28;20487;-69
2022/03/31 09:36:52;;;;;;;4.60;1.13;;;1.00;90.10;;;;;;4961220;28;20418;-69
2022/03/31 09:39:21;;;;;;;3.47;1.20;;;1.00;90.10;;;;;;4974520;28;20115;-69
2022/03/31 09:41:50;;;;;;;3.35;1.10;;;1.00;88.80;;;;;;4974823;28;20058;-69
2022/03/31 09:44:22;;;;;;;3.55;1.08;;;1.00;87.10;;;;;;4974674;28;20537;-69
2022/03/31 09:46:49;;;;;;;1.83;1.10;;;0.90;88.10;;;;;;4974707;28;20111;-69
2022/03/31 09:49:24;;;;;;;5.10;1.30;;;0.90;89.20;;;;;;4974061;28;20030;-69
2022/03/31 09:51:51;;;;;;;6.95;1.23;;;0.90;88.80;;;;;;4974626;28;20034;-69
2022/03/31 09:54:19;;;;;;;4.20;1.20;;;1.00;88.10;;;;;;4974699;28;20077;-69
2022/03/31 09:56:45;;;;;;;2.95;1.13;;;1.00;87.90;;;;;;4974432;28;20023;-69
2022/03/31 09:59:14;;;;;;;5.45;1.35;;;1.00;87.70;;;;;;4974189;28;20023;-69
2022/03/31 10:01:41;;;;;;;2.88;1.38;;;1.00;87.40;;;;;;4974481;28;20034;-69
2022/03/31 10:04:09;;;;;;;2.00;1.23;;;1.10;87.80;;;;;;4974119;28;20033;-69
2022/03/31 10:06:37;;;;;;;4.93;1.30;;;1.10;87.00;;;;;;4959650;28;20074;-67
2022/03/31 10:09:04;;;;;;;1.60;0.98;;;1.20;87.90;;;;;;4954870;28;20073;-67
2022/03/31 10:11:32;;;;;;;3.85;1.27;;;1.20;86.70;;;;;;4954920;28;20027;-67
2022/03/31 10:14:19;;;;;;;8.18;1.20;;;1.20;85.90;;;;;;4954610;28;20023;-67
2022/03/31 10:16:52;;;;;;;3.70;1.30;;;1.20;84.90;;;;;;4954716;28;20059;-67
2022/03/31 10:19:33;;;;;;;3.97;1.27;;;1.30;85.30;;;;;;4954678;28;20482;-67
2022/03/31 10:22:00;;;;;;;4.18;1.05;;;1.30;85.60;;;;;;4954832;28;20030;-67
2022/03/31 10:24:42;;;;;;;4.38;1.17;;;1.40;85.20;;;;;;4954635;28;20024;-67
2022/03/31 10:27:09;;;;;;;4.70;1.42;;;1.40;84.70;;;;;;4954601;28;20077;-65
2022/03/31 10:29:41;;;;;;;3.33;1.00;;;1.50;85.10;;;;;;4954575;28;20019;-65
2022/03/31 10:32:24;;;;;;;5.60;1.40;;;1.50;84.20;;;;;;4954614;28;20054;-65
2022/03/31 10:34:53;;;;;;;3.17;1.40;;;1.50;82.20;;;;;;4954667;28;20023;-65
2022/03/31 10:37:34;;;;;;;3.38;1.08;;;1.40;82.00;;;;;;4954136;28;20123;-66
2022/03/31 10:40:06;;;;;;;1.35;0.80;;;1.40;81.20;;;;;;4954211;28;20086;-66
2022/03/31 10:42:32;;;;;;;3.45;1.10;;;1.30;82.70;;;;;;4954532;28;20031;-66
2022/03/31 10:45:13;;;;;;;5.15;1.20;;;1.20;81.70;;;;;;4956487;28;20135;-66
2022/03/31 10:47:41;;;;;;;2.65;1.15;;;1.10;81.80;;;;;;4969904;28;20022;-66
2022/03/31 10:50:11;;;;;;;3.28;1.10;;;1.10;81.60;;;;;;4972360;28;20033;-66
2022/03/31 10:52:37;;;;;;;5.75;1.20;;;1.20;81.20;;;;;;4965493;28;20023;-66
2022/03/31 10:55:09;;;;;;;8.05;1.02;;;1.20;81.10;;;;;;4956268;28;20030;-66
2022/03/31 10:57:44;;;;;;;2.35;1.10;;;1.40;81.90;;;;;;4961621;28;20041;-66
2022/03/31 11:00:14;;;;;;;3.10;0.98;;;1.50;80.70;;;;;;4963502;28;20425;-67
2022/03/31 11:02:45;;;;;;;3.13;1.17;;;1.50;80.80;;;;;;4969991;28;20023;-67
2022/03/31 11:05:12;;;;;;;3.08;0.98;;;1.60;79.80;;;;;;4966612;28;20084;-67
2022/03/31 11:07:38;;;;;;;2.50;1.23;;;1.60;78.90;;;;;;4972548;28;20034;-69
2022/03/31 11:10:12;;;;;;;3.25;1.20;;;1.60;79.10;;;;;;4972524;28;20390;-69
2022/03/31 11:12:40;;;;;;;4.07;1.65;;;1.60;77.60;;;;;;4972599;28;20090;-69
2022/03/31 11:15:08;;;;;;;9.30;1.48;;;1.50;77.40;;;;;;4972256;28;20026;-69
2022/03/31 11:17:36;;;;;;;4.10;1.13;;;1.40;77.50;;;;;;4972416;28;20035;-69
2022/03/31 11:20:14;;;;;;;3.95;1.10;;;1.40;77.90;;;;;;4971968;28;20054;-69
2022/03/31 11:22:54;;;;;;;1.88;1.23;;;1.50;78.00;;;;;;4966999;28;20054;-68
2022/03/31 11:25:20;;;;;;;1.77;1.00;;;1.50;77.80;;;;;;4969199;28;20438;-69
2022/03/31 11:27:49;;;;;;;4.43;1.30;;;1.50;77.40;;;;;;4969517;28;20269;-68
2022/03/31 11:30:22;;;;;;;3.10;1.13;;;1.50;77.90;;;;;;4972464;28;20023;-69
2022/03/31 11:32:56;;;;;;;7.25;1.20;;;1.50;76.40;;;;;;4972569;28;20170;-67
2022/03/31 11:35:24;;;;;;;6.15;1.15;;;1.50;77.40;;;;;;4972821;28;20483;-68
2022/03/31 11:37:57;;;;;;;2.15;0.90;;;1.50;78.30;;;;;;4972606;28;20430;-66
2022/03/31 11:40:28;;;;;;;8.00;1.70;;;1.50;77.00;;;;;;4972913;28;20098;-65
2022/03/31 11:42:59;;;;;;;1.42;0.95;;;1.50;76.70;;;;;;4972789;28;20465;-66
2022/03/31 11:45:29;;;;;;;3.67;1.15;;;1.50;77.20;;;;;;4967911;28;20071;-67
2022/03/31 11:48:04;;;;;;;8.45;1.60;;;2.20;90.40;;;;;;4956344;28;20057;-66
2022/03/31 11:50:32;;;;;;;4.28;1.50;;;2.20;80.50;;;;;;4972460;28;20035;-66
2022/03/31 11:52:58;;;;;;;2.85;1.20;;;2.10;79.90;;;;;;4972099;28;20035;-66
2022/03/31 11:55:24;;;;;;;4.90;1.17;;;2.00;78.60;;;;;;4971016;28;20497;-66
2022/03/31 11:57:55;;;;;;;1.83;0.85;;;2.00;78.30;;;;;;4972302;28;20639;-66
2022/03/31 12:00:22;;;;;;;4.22;1.20;;;1.90;78.10;;;;;;4955746;28;20024;-68
2022/03/31 12:03:02;;;;;;;4.28;1.00;;;1.90;77.80;;;;;;4953219;28;20690;-65
2022/03/31 12:05:28;;;;;;;4.57;1.40;;;2.00;99.90;;;;;;4953085;28;20086;-66
2022/03/31 12:07:54;;;;;;;5.60;1.20;;;4.00;99.90;;;;;;4966149;28;20384;-66
2022/03/31 12:10:21;;;;;;;3.05;1.25;;;4.10;89.40;;;;;;4972632;28;20070;-66
2022/03/31 12:12:54;;;;;;;4.05;1.35;;;3.50;78.00;;;;;;4976317;28;20035;-66
2022/03/31 12:15:28;;;;;;;3.47;1.25;;;2.90;76.20;;;;;;4976141;28;20046;-66
2022/03/31 12:17:59;;;;;;;4.57;1.40;;;2.60;76.20;;;;;;4976152;28;20126;-66
2022/03/31 12:20:29;;;;;;;3.50;1.60;;;2.40;75.70;;;;;;4976138;28;20027;-66
2022/03/31 12:22:55;;;;;;;4.45;1.35;;;2.40;76.80;;;;;;4976147;28;20073;-66
2022/03/31 12:25:29;;;;;;;3.67;1.20;;;2.30;76.40;;;;;;4976101;28;20041;-66
2022/03/31 12:27:58;;;;;;;6.55;1.13;;;2.30;77.60;;;;;;4976421;28;20023;-66
2022/03/31 12:30:24;;;;;;;4.32;1.23;;;2.20;75.70;;;;;;4976207;28;20086;-66
2022/03/31 12:32:49;;;;;;;7.25;1.27;;;2.20;76.10;;;;;;4976165;28;20430;-66
2022/03/31 12:35:15;;;;;;;2.05;0.70;;;2.20;77.60;;;;;;4976160;28;20080;-64
2022/03/31 12:37:48;;;;;;;9.07;1.77;;;3.00;99.90;;;;;;4975896;28;20072;-66
2022/03/31 12:40:16;;;;;;;7.50;1.45;;;4.40;93.50;;;;;;4966465;28;20548;-66
2022/03/31 12:42:53;;;;;;;2.95;1.40;;;4.10;79.80;;;;;;4956391;28;20063;-70
2022/03/31 12:45:19;;;;;;;2.92;1.23;;;3.60;77.00;;;;;;4956307;28;20030;-71
2022/03/31 12:47:47;;;;;;;4.50;1.45;;;3.20;76.10;;;;;;4956796;28;20038;-70
2022/03/31 12:50:26;;;;;;;3.50;1.15;;;3.00;77.30;;;;;;4959626;28;20026;-71
2022/03/31 12:53:02;;;;;;;7.80;1.13;;;2.90;78.00;;;;;;4975691;28;20023;-70
2022/03/31 12:55:41;;;;;;;7.72;1.42;;;2.90;77.80;;;;;;4975527;28;20372;-70
2022/03/31 12:58:07;;;;;;;8.30;1.52;;;2.90;76.40;;;;;;4975410;28;20037;-66
2022/03/31 13:00:34;;;;;;;6.70;2.08;;;2.80;76.60;;;;;;4975343;28;20054;-66
2022/03/31 13:03:01;;;;;;;3.88;1.50;;;2.70;75.80;;;;;;4966881;28;20062;-66
2022/03/31 13:05:28;;;;;;;8.02;1.73;;;2.50;74.60;;;;;;4966043;28;20027;-65
2022/03/31 13:07:54;;;;;;;2.10;1.00;;;2.40;75.30;;;;;;4966236;28;20087;-66
2022/03/31 13:10:22;;;;;;;5.68;1.38;;;2.40;75.70;;;;;;4965662;28;20505;-66
2022/03/31 13:12:49;;;;;;;5.22;1.58;;;2.40;75.10;;;;;;4968425;28;20043;-66
2022/03/31 13:15:16;;;;;;;5.43;1.00;;;2.40;75.10;;;;;;4960505;28;20019;-66
2022/03/31 13:17:44;;;;;;;6.78;1.27;;;2.40;74.40;;;;;;4963345;28;20042;-66
2022/03/31 13:20:12;;;;;;;8.70;1.60;;;2.40;75.20;;;;;;4965572;28;20030;-65
2022/03/31 13:22:38;;;;;;;5.70;1.30;;;2.40;75.70;;;;;;4954407;28;20105;-66
2022/03/31 13:25:08;;;;;;;3.60;0.95;;;2.40;74.20;;;;;;4955138;28;20055;-65
2022/03/31 13:27:36;;;;;;;3.45;1.33;;;2.40;74.60;;;;;;4955564;28;20171;-65
2022/03/31 13:30:04;;;;;;;4.47;1.20;;;2.30;73.60;;;;;;4955039;28;20117;-65
2022/03/31 13:32:30;;;;;;;2.60;1.17;;;2.30;73.30;;;;;;4971962;28;20022;-65
2022/03/31 13:34:56;;;;;;;5.15;1.42;;;2.30;73.20;;;;;;4974412;28;20028;-65
2022/03/31 13:37:25;;;;;;;2.40;1.20;;;2.30;72.90;;;;;;4965800;28;20038;-67
2022/03/31 13:39:52;;;;;;;4.20;1.05;;;2.30;74.00;;;;;;4971940;28;20647;-66
2022/03/31 13:42:19;;;;;;;2.17;1.05;;;2.30;72.20;;;;;;4973811;28;20034;-65
2022/03/31 13:44:46;;;;;;;3.38;0.98;;;2.30;71.90;;;;;;4974129;28;20462;-65
2022/03/31 13:47:12;;;;;;;1.50;0.80;;;2.20;71.90;;;;;;4974158;28;20033;-67
2022/03/31 13:49:39;;;;;;;4.32;1.00;;;2.30;71.60;;;;;;4974137;28;20030;-65
2022/03/31 13:52:06;;;;;;;2.85;0.90;;;2.30;71.90;;;;;;4970732;28;20657;-67
2022/03/31 13:54:34;;;;;;;4.32;1.30;;;2.30;72.00;;;;;;4954886;28;20438;-68
2022/03/31 13:57:01;;;;;;;7.90;1.25;;;2.30;72.40;;;;;;4954806;28;20045;-68
2022/03/31 14:02:13;;;;;;;4.18;1.10;;;2.40;72.30;;;;;;4969089;28;20025;-68
2022/03/31 14:04:39;;;;;;;5.88;1.30;;;2.40;72.10;;;;;;4969715;28;20037;-66
2022/03/31 14:07:07;;;;;;;4.20;1.20;;;2.40;71.90;;;;;;4973690;28;20442;-66
2022/03/31 14:09:35;;;;;;;1.55;0.90;;;2.40;71.50;;;;;;4973597;28;20475;-68
2022/03/31 14:12:01;;;;;;;7.18;1.17;;;2.40;71.60;;;;;;4971535;28;20030;-68
2022/03/31 14:14:28;;;;;;;5.10;1.33;;;2.30;69.50;;;;;;4954453;28;20027;-68
2022/03/31 14:16:56;;;;;;;6.93;1.00;;;2.30;70.50;;;;;;4954469;28;20027;-68
2022/03/31 14:19:25;;;;;;;1.52;0.90;;;2.30;69.50;;;;;;4954294;28;20035;-68